La rose des vents
Donnes mto: Semaine 24/03/08 - 30/03/08 (S 13)
Date Horaire Temp. E. Hum. E. P.atmo. Pluie Vent 1mn Direction Ensoleilleme Ev.Tr. Solaire P. de rose Temp au vent Rafales
24/03/2008 00:00 2,9 C 76 % 990,8 hPa 0,0 l/m 1,9 km/h (1 Bft) O-SO 0,00 h 0,025 mm 0 W/m -0,9 C 2,7 C 3,1 km/h (1 Bft)
24/03/2008 01:00 2,9 C 79 % 990,2 hPa 0,0 l/m 1,3 km/h (1 Bft) O-NO 0,00 h 0,025 mm 0 W/m -0,4 C 2,9 C 2,6 km/h (1 Bft)
24/03/2008 02:00 2,6 C 79 % 989,9 hPa 0,0 l/m 4,6 km/h (1 Bft) O-NO 0,00 h 0,025 mm 0 W/m -0,5 C 1,6 C 5,9 km/h (2 Bft)
24/03/2008 03:00 2,7 C 74 % 989,3 hPa 0,0 l/m 4,6 km/h (1 Bft) O 0,00 h 0,025 mm 0 W/m -1,5 C 1,7 C 6,3 km/h (2 Bft)
24/03/2008 04:00 2,1 C 64 % 989,3 hPa 0,0 l/m 3,0 km/h (1 Bft) O-NO 0,00 h 0,025 mm 0 W/m -4,0 C 1,6 C 4,8 km/h (1 Bft)
24/03/2008 05:00 1,4 C 64 % 989,4 hPa 0,0 l/m 2,5 km/h (1 Bft) S-SO 0,00 h 0,025 mm 0 W/m -4,6 C 1,1 C 3,6 km/h (1 Bft)
24/03/2008 06:00 1,4 C 59 % 989,7 hPa 0,0 l/m 4,3 km/h (1 Bft) S-SO 0,00 h 0,025 mm 12 W/m -5,7 C 0,4 C 5,7 km/h (1 Bft)
24/03/2008 07:00 1,5 C 59 % 990,6 hPa 0,0 l/m 3,3 km/h (1 Bft) S-SO 0,27 h 0,025 mm 77 W/m -5,6 C 0,8 C 5,0 km/h (1 Bft)
24/03/2008 08:00 5,6 C 44 % 990,6 hPa 0,0 l/m 3,0 km/h (1 Bft) O-NO 1,00 h 0,051 mm 341 W/m -5,8 C 5,1 C 5,0 km/h (1 Bft)
24/03/2008 09:00 8,4 C 35 % 990,3 hPa 0,0 l/m 6,1 km/h (2 Bft) NE 0,98 h 0,152 mm 507 W/m -6,2 C 7,6 C 9,3 km/h (2 Bft)
24/03/2008 10:00 9,1 C 30 % 990,0 hPa 0,0 l/m 3,8 km/h (1 Bft) E 0,58 h 0,279 mm 410 W/m -7,6 C 8,9 C 6,8 km/h (2 Bft)
24/03/2008 11:00 11,9 C 25 % 989,5 hPa 0,0 l/m 6,3 km/h (2 Bft) E 1,00 h 0,229 mm 764 W/m -7,4 C 11,9 C 10,9 km/h (2 Bft)
24/03/2008 12:00 12,3 C 28 % 989,7 hPa 0,0 l/m 12,3 km/h (3 Bft) E 1,00 h 0,432 mm 790 W/m -5,5 C 12,3 C 19,5 km/h (3 Bft)
24/03/2008 13:00 12,1 C 30 % 990,1 hPa 0,0 l/m 11,2 km/h (2 Bft) E 1,00 h 0,483 mm 771 W/m -4,9 C 12,1 C 16,8 km/h (3 Bft)
24/03/2008 14:00 12,3 C 33 % 990,1 hPa 0,0 l/m 8,8 km/h (2 Bft) E 1,00 h 0,483 mm 710 W/m -3,5 C 12,3 C 13,9 km/h (3 Bft)
24/03/2008 15:00 12,3 C 34 % 990,6 hPa 0,0 l/m 11,1 km/h (2 Bft) E-NE 1,00 h 0,406 mm 542 W/m -3,0 C 12,3 C 15,9 km/h (3 Bft)
24/03/2008 16:00 11,4 C 38 % 991,3 hPa 0,0 l/m 5,5 km/h (1 Bft) S-SE 1,00 h 0,356 mm 373 W/m -2,4 C 11,4 C 9,1 km/h (2 Bft)
24/03/2008 17:00 10,2 C 48 % 992,6 hPa 0,0 l/m 4,8 km/h (1 Bft) SE 0,98 h 0,229 mm 187 W/m -0,4 C 10,1 C 8,3 km/h (2 Bft)
24/03/2008 18:00 9,2 C 34 % 994,3 hPa 0,0 l/m 15,7 km/h (3 Bft) O-NO 0,25 h 0,127 mm 32 W/m -6,3 C 7,2 C 23,6 km/h (4 Bft)
24/03/2008 19:00 8,5 C 21 % 995,3 hPa 0,0 l/m 28,9 km/h (5 Bft) NO 0,00 h 0,127 mm 0 W/m -12,6 C 4,7 C 42,8 km/h (6 Bft)
24/03/2008 20:00 8,1 C 21 % 996,8 hPa 0,0 l/m 13,2 km/h (3 Bft) O-NO 0,00 h 0,229 mm 0 W/m -13,0 C 6,2 C 20,4 km/h (4 Bft)
24/03/2008 21:00 7,5 C 25 % 997,5 hPa 0,0 l/m 23,0 km/h (4 Bft) O 0,00 h 0,127 mm 0 W/m -11,1 C 4,0 C 32,3 km/h (5 Bft)
24/03/2008 22:00 5,9 C 33 % 998,4 hPa 0,0 l/m 19,8 km/h (4 Bft) O-SO 0,00 h 0,178 mm 0 W/m -9,3 C 2,2 C 25,6 km/h (4 Bft)
24/03/2008 23:00 5,0 C 42 % 998,2 hPa 0,0 l/m 26,9 km/h (4 Bft) SO 0,00 h 0,127 mm 0 W/m -6,8 C 0,3 C 33,9 km/h (5 Bft)
25/03/2008 00:00 4,5 C 54 % 997,6 hPa 0,0 l/m 30,7 km/h (5 Bft) SO 0,00 h 0,127 mm 0 W/m -3,9 C -0,6 C 38,6 km/h (5 Bft)
25/03/2008 01:00 4,4 C 62 % 997,0 hPa 0,0 l/m 32,9 km/h (5 Bft) SO 0,00 h 0,127 mm 0 W/m -2,2 C -0,9 C 40,9 km/h (6 Bft)
25/03/2008 02:00 4,4 C 67 % 996,1 hPa 0,0 l/m 31,1 km/h (5 Bft) SO 0,00 h 0,102 mm 0 W/m -1,2 C -0,8 C 39,5 km/h (6 Bft)
25/03/2008 03:00 5,1 C 67 % 995,0 hPa 0,0 l/m 28,9 km/h (5 Bft) SO 0,00 h 0,102 mm 0 W/m -0,5 C 0,3 C 36,4 km/h (5 Bft)
25/03/2008 04:00 6,7 C 62 % 994,3 hPa 0,0 l/m 30,1 km/h (5 Bft) SO 0,00 h 0,076 mm 0 W/m -0,1 C 2,3 C 38,0 km/h (5 Bft)
25/03/2008 05:00 7,9 C 52 % 993,8 hPa 0,0 l/m 34,6 km/h (5 Bft) SO 0,00 h 0,102 mm 0 W/m -1,4 C 3,5 C 44,6 km/h (6 Bft)
25/03/2008 06:00 8,4 C 44 % 993,9 hPa 0,0 l/m 26,8 km/h (4 Bft) O-SO 0,03 h 0,152 mm 13 W/m -3,0 C 4,8 C 35,1 km/h (5 Bft)
25/03/2008 07:00 9,7 C 37 % 994,5 hPa 0,0 l/m 19,7 km/h (3 Bft) O-SO 0,17 h 0,152 mm 63 W/m -4,2 C 7,8 C 26,4 km/h (4 Bft)
25/03/2008 08:00 11,5 C 36 % 994,9 hPa 0,0 l/m 10,8 km/h (2 Bft) E 1,00 h 0,152 mm 331 W/m -3,3 C 11,5 C 15,2 km/h (3 Bft)
25/03/2008 09:00 12,6 C 36 % 995,4 hPa 0,0 l/m 6,8 km/h (2 Bft) NE 1,00 h 0,254 mm 500 W/m -2,0 C 12,6 C 9,9 km/h (2 Bft)
25/03/2008 10:00 15,0 C 32 % 995,8 hPa 0,0 l/m 8,8 km/h (2 Bft) NE 1,00 h 0,305 mm 637 W/m -1,6 C 15,0 C 12,7 km/h (3 Bft)
25/03/2008 11:00 16,0 C 34 % 996,1 hPa 0,0 l/m 8,7 km/h (2 Bft) E 1,00 h 0,406 mm 712 W/m 0,2 C 16,0 C 14,8 km/h (3 Bft)
25/03/2008 12:00 14,2 C 42 % 996,8 hPa 0,0 l/m 11,5 km/h (2 Bft) E 1,00 h 0,457 mm 718 W/m 1,3 C 14,2 C 18,6 km/h (3 Bft)
25/03/2008 13:00 14,3 C 44 % 997,1 hPa 0,0 l/m 13,7 km/h (3 Bft) E 1,00 h 0,457 mm 736 W/m 2,2 C 14,3 C 20,6 km/h (4 Bft)
25/03/2008 14:00 14,7 C 46 % 997,0 hPa 0,0 l/m 13,3 km/h (3 Bft) E-NE 1,00 h 0,483 mm 658 W/m 3,1 C 14,7 C 18,9 km/h (3 Bft)
25/03/2008 15:00 14,2 C 40 % 997,2 hPa 0,0 l/m 5,8 km/h (2 Bft) E 1,00 h 0,432 mm 536 W/m 0,9 C 14,2 C 11,1 km/h (2 Bft)
25/03/2008 16:00 13,7 C 47 % 997,4 hPa 0,0 l/m 4,4 km/h (1 Bft) E 1,00 h 0,330 mm 375 W/m 2,5 C 13,7 C 8,9 km/h (2 Bft)
25/03/2008 17:00 12,7 C 47 % 998,0 hPa 0,0 l/m 2,2 km/h (1 Bft) E-SE 1,00 h 0,229 mm 199 W/m 1,6 C 12,7 C 5,2 km/h (1 Bft)
25/03/2008 18:00 11,0 C 53 % 998,6 hPa 0,0 l/m 0,4 km/h (0 Bft) E-SE 0,22 h 0,127 mm 32 W/m 1,8 C 11,0 C 1,4 km/h (1 Bft)
25/03/2008 19:00 8,8 C 59 % 999,2 hPa 0,0 l/m 1,7 km/h (1 Bft) O 0,00 h 0,025 mm 0 W/m 1,2 C 8,8 C 3,1 km/h (1 Bft)
25/03/2008 20:00 7,8 C 59 % 999,8 hPa 0,0 l/m 3,2 km/h (1 Bft) O-NO 0,00 h 0,025 mm 0 W/m 0,2 C 7,7 C 5,1 km/h (1 Bft)
25/03/2008 21:00 7,7 C 53 % 1000,1 hPa 0,0 l/m 1,2 km/h (1 Bft) NO 0,00 h 0,051 mm 0 W/m -1,3 C 7,7 C 2,1 km/h (1 Bft)
25/03/2008 22:00 7,6 C 51 % 1000,5 hPa 0,0 l/m 5,5 km/h (1 Bft) NO 0,00 h 0,025 mm 0 W/m -2,0 C 6,8 C 7,2 km/h (2 Bft)
25/03/2008 23:00 7,5 C 44 % 1001,1 hPa 0,0 l/m 7,2 km/h (2 Bft) O-NO 0,00 h 0,051 mm 0 W/m -4,0 C 6,4 C 9,5 km/h (2 Bft)
26/03/2008 00:00 6,7 C 46 % 1001,7 hPa 0,0 l/m 4,0 km/h (1 Bft) NO 0,00 h 0,076 mm 0 W/m -4,0 C 6,3 C 5,9 km/h (2 Bft)
26/03/2008 01:00 6,9 C 45 % 1002,1 hPa 0,0 l/m 5,0 km/h (1 Bft) NO 0,00 h 0,051 mm 0 W/m -4,3 C 6,2 C 6,9 km/h (2 Bft)
26/03/2008 02:00 6,8 C 43 % 1002,2 hPa 0,0 l/m 8,6 km/h (2 Bft) O-NO 0,00 h 0,051 mm 0 W/m -4,9 C 5,1 C 12,0 km/h (2 Bft)
26/03/2008 03:00 6,3 C 44 % 1002,2 hPa 0,0 l/m 5,8 km/h (2 Bft) NO 0,00 h 0,076 mm 0 W/m -5,0 C 5,3 C 8,4 km/h (2 Bft)
26/03/2008 04:00 6,1 C 44 % 1002,1 hPa 0,0 l/m 6,0 km/h (2 Bft) O-NO 0,00 h 0,051 mm 0 W/m -5,1 C 5,1 C 8,8 km/h (2 Bft)
26/03/2008 05:00 6,4 C 44 % 1002,3 hPa 0,0 l/m 10,8 km/h (2 Bft) O-NO 0,00 h 0,051 mm 0 W/m -5,0 C 4,3 C 15,0 km/h (3 Bft)
26/03/2008 06:00 6,5 C 44 % 1002,5 hPa 0,0 l/m 3,8 km/h (1 Bft) NO 0,08 h 0,076 mm 19 W/m -4,8 C 6,0 C 6,1 km/h (2 Bft)
26/03/2008 07:00 6,9 C 46 % 1003,1 hPa 0,0 l/m 1,1 km/h (1 Bft) O-NO 0,18 h 0,025 mm 103 W/m -4,0 C 6,9 C 1,8 km/h (1 Bft)
26/03/2008 08:00 9,8 C 43 % 1003,6 hPa 0,0 l/m 0,4 km/h (0 Bft) O-NO 0,98 h 0,051 mm 244 W/m -2,2 C 9,8 C 1,3 km/h (1 Bft)
26/03/2008 09:00 12,4 C 34 % 1003,6 hPa 0,0 l/m 3,6 km/h (1 Bft) E 1,00 h 0,127 mm 513 W/m -2,9 C 12,4 C 6,0 km/h (2 Bft)
26/03/2008 10:00 13,9 C 32 % 1003,5 hPa 0,0 l/m 5,9 km/h (2 Bft) S 1,00 h 0,279 mm 632 W/m -2,3 C 13,9 C 9,6 km/h (2 Bft)
26/03/2008 11:00 14,3 C 39 % 1003,2 hPa 0,0 l/m 8,3 km/h (2 Bft) S-SE 1,00 h 0,381 mm 730 W/m 0,5 C 14,3 C 13,5 km/h (3 Bft)
26/03/2008 12:00 14,5 C 41 % 1002,6 hPa 0,0 l/m 12,4 km/h (3 Bft) S-SE 0,93 h 0,432 mm 773 W/m 1,4 C 14,5 C 18,3 km/h (3 Bft)
26/03/2008 13:00 14,7 C 39 % 1001,8 hPa 0,0 l/m 10,5 km/h (2 Bft) S 1,00 h 0,483 mm 737 W/m 1,0 C 14,7 C 16,9 km/h (3 Bft)
26/03/2008 14:00 14,9 C 36 % 1001,1 hPa 0,0 l/m 10,8 km/h (2 Bft) E 1,00 h 0,457 mm 663 W/m 0,1 C 14,9 C 17,2 km/h (3 Bft)
26/03/2008 15:00 14,0 C 41 % 1000,8 hPa 0,0 l/m 7,4 km/h (2 Bft) E 0,93 h 0,432 mm 496 W/m 0,9 C 14,0 C 13,6 km/h (3 Bft)
26/03/2008 16:00 12,7 C 55 % 1000,6 hPa 0,0 l/m 5,9 km/h (2 Bft) E 0,53 h 0,305 mm 241 W/m 4,0 C 12,7 C 10,2 km/h (2 Bft)
26/03/2008 17:00 11,3 C 61 % 1000,1 hPa 0,0 l/m 4,6 km/h (1 Bft) E 0,00 h 0,152 mm 100 W/m 4,2 C 11,3 C 7,3 km/h (2 Bft)
26/03/2008 18:00 10,1 C 65 % 999,8 hPa 0,0 l/m 3,5 km/h (1 Bft) NE 0,00 h 0,076 mm 26 W/m 3,9 C 10,1 C 5,7 km/h (1 Bft)
26/03/2008 19:00 8,9 C 67 % 999,9 hPa 0,0 l/m 0,8 km/h (0 Bft) NE 0,00 h 0,025 mm 0 W/m 3,2 C 8,9 C 1,9 km/h (1 Bft)
26/03/2008 20:00 9,0 C 68 % 999,9 hPa 0,0 l/m 2,1 km/h (1 Bft) NE 0,00 h 0,000 mm 0 W/m 3,3 C 8,9 C 3,2 km/h (1 Bft)
26/03/2008 21:00 8,8 C 68 % 999,8 hPa 0,0 l/m 5,0 km/h (1 Bft) O 0,00 h 0,025 mm 0 W/m 3,1 C 8,4 C 6,3 km/h (2 Bft)
26/03/2008 22:00 8,3 C 70 % 999,5 hPa 0,0 l/m 3,9 km/h (1 Bft) O 0,00 h 0,025 mm 0 W/m 3,3 C 8,1 C 5,4 km/h (1 Bft)
26/03/2008 23:00 8,0 C 71 % 999,2 hPa 0,0 l/m 2,1 km/h (1 Bft) O 0,00 h 0,025 mm 0 W/m 3,1 C 8,0 C 3,6 km/h (1 Bft)
27/03/2008 00:00 8,0 C 72 % 998,9 hPa 0,0 l/m 1,7 km/h (1 Bft) O 0,00 h 0,025 mm 0 W/m 3,2 C 8,0 C 3,6 km/h (1 Bft)
27/03/2008 01:00 8,1 C 68 % 998,6 hPa 0,0 l/m 1,6 km/h (1 Bft) O 0,00 h 0,025 mm 0 W/m 2,6 C 8,1 C 3,4 km/h (1 Bft)
27/03/2008 02:00 7,7 C 67 % 998,5 hPa 0,0 l/m 1,0 km/h (0 Bft) N-NO 0,00 h 0,025 mm 0 W/m 2,0 C 7,7 C 2,7 km/h (1 Bft)
27/03/2008 03:00 7,7 C 69 % 998,0 hPa 0,0 l/m 1,5 km/h (1 Bft) N-NO 0,00 h 0,025 mm 0 W/m 2,4 C 7,7 C 3,3 km/h (1 Bft)
27/03/2008 04:00 7,7 C 69 % 998,1 hPa 0,0 l/m 2,2 km/h (1 Bft) N-NO 0,00 h 0,025 mm 0 W/m 2,4 C 7,7 C 3,8 km/h (1 Bft)
27/03/2008 05:00 7,6 C 68 % 998,1 hPa 0,0 l/m 3,1 km/h (1 Bft) O-NO 0,00 h 0,025 mm 0 W/m 2,0 C 7,5 C 5,1 km/h (1 Bft)
27/03/2008 06:00 7,4 C 70 % 998,6 hPa 0,0 l/m 2,7 km/h (1 Bft) O-NO 0,38 h 0,025 mm 31 W/m 2,4 C 7,3 C 4,6 km/h (1 Bft)
27/03/2008 07:00 8,7 C 68 % 998,7 hPa 0,0 l/m 4,2 km/h (1 Bft) O-NO 1,00 h 0,025 mm 131 W/m 3,0 C 8,5 C 5,8 km/h (2 Bft)
27/03/2008 08:00 10,6 C 63 % 998,7 hPa 0,0 l/m 2,5 km/h (1 Bft) O-NO 0,15 h 0,076 mm 184 W/m 3,9 C 10,6 C 3,8 km/h (1 Bft)
27/03/2008 09:00 11,7 C 64 % 998,7 hPa 0,0 l/m 1,9 km/h (1 Bft) E-NE 0,28 h 0,102 mm 284 W/m 5,0 C 11,7 C 3,5 km/h (1 Bft)
27/03/2008 10:00 12,5 C 61 % 998,6 hPa 0,0 l/m 4,3 km/h (1 Bft) E-SE 0,33 h 0,152 mm 327 W/m 5,3 C 12,5 C 7,1 km/h (2 Bft)
27/03/2008 11:00 11,1 C 63 % 998,8 hPa 1,2 l/m 8,7 km/h (2 Bft) S-SE 0,00 h 0,178 mm 148 W/m 4,3 C 10,9 C 12,6 km/h (3 Bft)
27/03/2008 12:00 8,8 C 82 % 999,1 hPa 0,2 l/m 2,2 km/h (1 Bft) N 0,00 h 0,102 mm 104 W/m 5,9 C 8,6 C 3,6 km/h (1 Bft)
27/03/2008 13:00 10,0 C 79 % 998,5 hPa 0,2 l/m 0,9 km/h (0 Bft) S-SO 0,30 h 0,051 mm 393 W/m 6,6 C 10,0 C 2,2 km/h (1 Bft)
27/03/2008 14:00 12,5 C 66 % 998,1 hPa 0,6 l/m 3,9 km/h (1 Bft) E-NE 0,50 h 0,203 mm 414 W/m 6,4 C 12,5 C 6,4 km/h (2 Bft)
27/03/2008 15:00 9,4 C 76 % 998,6 hPa 1,2 l/m 8,0 km/h (2 Bft) S-SO 0,00 h 0,229 mm 65 W/m 5,3 C 8,4 C 11,2 km/h (2 Bft)
27/03/2008 16:00 8,5 C 85 % 998,7 hPa 0,0 l/m 6,9 km/h (2 Bft) S-SO 0,00 h 0,051 mm 124 W/m 6,1 C 7,6 C 9,3 km/h (2 Bft)
27/03/2008 17:00 8,7 C 85 % 998,7 hPa 0,0 l/m 3,8 km/h (1 Bft) S-SO 0,15 h 0,076 mm 97 W/m 6,3 C 8,3 C 5,5 km/h (1 Bft)
27/03/2008 18:00 8,4 C 81 % 998,9 hPa 0,0 l/m 2,7 km/h (1 Bft) E-NE 0,00 h 0,051 mm 20 W/m 5,4 C 8,2 C 3,9 km/h (1 Bft)
27/03/2008 19:00 7,2 C 82 % 999,1 hPa 0,0 l/m 2,4 km/h (1 Bft) N-NO 0,00 h 0,025 mm 0 W/m 4,4 C 7,1 C 4,0 km/h (1 Bft)
27/03/2008 20:00 7,0 C 83 % 999,7 hPa 0,0 l/m 3,6 km/h (1 Bft) N-NO 0,00 h 0,000 mm 0 W/m 4,3 C 6,6 C 5,1 km/h (1 Bft)
27/03/2008 21:00 6,8 C 82 % 999,8 hPa 0,0 l/m 2,7 km/h (1 Bft) O-NO 0,00 h 0,025 mm 0 W/m 3,9 C 6,7 C 4,4 km/h (1 Bft)
27/03/2008 22:00 6,0 C 82 % 999,8 hPa 0,0 l/m 3,4 km/h (1 Bft) O-NO 0,00 h 0,025 mm 0 W/m 3,2 C 5,8 C 5,7 km/h (1 Bft)
27/03/2008 23:00 5,8 C 82 % 999,9 hPa 0,0 l/m 3,7 km/h (1 Bft) NO 0,00 h 0,025 mm 0 W/m 2,9 C 5,4 C 5,5 km/h (1 Bft)
28/03/2008 00:00 5,8 C 81 % 1000,4 hPa 0,0 l/m 2,6 km/h (1 Bft) NO 0,00 h 0,025 mm 0 W/m 2,7 C 5,7 C 4,4 km/h (1 Bft)
28/03/2008 01:00 5,7 C 79 % 1000,8 hPa 0,0 l/m 4,3 km/h (1 Bft) NO 0,00 h 0,025 mm 0 W/m 2,4 C 5,2 C 6,4 km/h (2 Bft)
28/03/2008 02:00 6,0 C 76 % 1001,3 hPa 0,0 l/m 5,4 km/h (1 Bft) O-NO 0,00 h 0,025 mm 0 W/m 2,2 C 5,1 C 8,5 km/h (2 Bft)
28/03/2008 03:00 5,8 C 74 % 1001,8 hPa 0,0 l/m 8,2 km/h (2 Bft) O-NO 0,00 h 0,025 mm 0 W/m 1,5 C 4,0 C 12,0 km/h (2 Bft)
28/03/2008 04:00 5,9 C 69 % 1002,4 hPa 0,0 l/m 10,7 km/h (2 Bft) O-NO 0,00 h 0,025 mm 0 W/m 0,6 C 3,6 C 14,7 km/h (3 Bft)
28/03/2008 05:00 6,0 C 64 % 1003,2 hPa 0,0 l/m 9,5 km/h (2 Bft) O-NO 0,00 h 0,051 mm 0 W/m -0,2 C 4,0 C 14,0 km/h (3 Bft)
28/03/2008 06:00 5,3 C 63 % 1004,3 hPa 0,0 l/m 3,9 km/h (1 Bft) O-NO 0,03 h 0,051 mm 17 W/m -1,2 C 4,8 C 6,7 km/h (2 Bft)
28/03/2008 07:00 6,4 C 62 % 1005,6 hPa 0,0 l/m 2,8 km/h (1 Bft) O-NO 0,05 h 0,025 mm 53 W/m -0,3 C 5,9 C 4,4 km/h (1 Bft)
28/03/2008 08:00 10,1 C 54 % 1006,9 hPa 0,0 l/m 2,1 km/h (1 Bft) E-NE 1,00 h 0,051 mm 334 W/m 1,1 C 10,1 C 3,6 km/h (1 Bft)
28/03/2008 09:00 12,4 C 52 % 1008,0 hPa 0,0 l/m 3,2 km/h (1 Bft) E-SE 1,00 h 0,178 mm 509 W/m 2,7 C 12,4 C 5,5 km/h (1 Bft)
28/03/2008 10:00 14,2 C 41 % 1008,7 hPa 0,0 l/m 5,2 km/h (1 Bft) S 1,00 h 0,279 mm 649 W/m 1,2 C 14,2 C 8,3 km/h (2 Bft)
28/03/2008 11:00 15,4 C 40 % 1009,2 hPa 0,0 l/m 7,3 km/h (2 Bft) S 1,00 h 0,381 mm 733 W/m 1,8 C 15,4 C 11,9 km/h (2 Bft)
28/03/2008 12:00 16,1 C 38 % 1009,8 hPa 0,0 l/m 11,8 km/h (2 Bft) S 1,00 h 0,457 mm 764 W/m 1,7 C 16,1 C 17,2 km/h (3 Bft)
28/03/2008 13:00 16,8 C 34 % 1009,9 hPa 0,0 l/m 15,0 km/h (3 Bft) S-SE 1,00 h 0,508 mm 744 W/m 0,7 C 16,8 C 20,3 km/h (4 Bft)
28/03/2008 14:00 16,4 C 42 % 1010,1 hPa 0,0 l/m 17,8 km/h (3 Bft) S 1,00 h 0,533 mm 662 W/m 3,2 C 16,4 C 24,0 km/h (4 Bft)
28/03/2008 15:00 16,1 C 42 % 1010,4 hPa 0,0 l/m 20,3 km/h (4 Bft) S 1,00 h 0,483 mm 535 W/m 3,1 C 16,1 C 26,8 km/h (4 Bft)
28/03/2008 16:00 15,3 C 39 % 1010,7 hPa 0,0 l/m 16,8 km/h (3 Bft) S 0,63 h 0,432 mm 246 W/m 1,2 C 15,3 C 22,8 km/h (4 Bft)
28/03/2008 17:00 15,7 C 34 % 1011,0 hPa 0,0 l/m 7,2 km/h (2 Bft) S-SE 1,00 h 0,254 mm 196 W/m -0,2 C 15,7 C 10,7 km/h (2 Bft)
28/03/2008 18:00 13,9 C 47 % 1011,6 hPa 0,0 l/m 2,6 km/h (1 Bft) S-SE 0,25 h 0,178 mm 35 W/m 2,8 C 13,9 C 4,5 km/h (1 Bft)
28/03/2008 19:00 10,8 C 63 % 1012,2 hPa 0,0 l/m 6,3 km/h (2 Bft) N-NE 0,00 h 0,051 mm 0 W/m 4,2 C 10,8 C 9,2 km/h (2 Bft)
28/03/2008 20:00 10,0 C 66 % 1012,7 hPa 0,0 l/m 3,3 km/h (1 Bft) N 0,00 h 0,025 mm 0 W/m 4,0 C 9,9 C 5,3 km/h (1 Bft)
28/03/2008 21:00 9,5 C 65 % 1013,1 hPa 0,0 l/m 1,4 km/h (1 Bft) N 0,00 h 0,025 mm 0 W/m 3,3 C 9,5 C 2,6 km/h (1 Bft)
28/03/2008 22:00 9,7 C 61 % 1013,1 hPa 0,0 l/m 4,7 km/h (1 Bft) O-SO 0,00 h 0,025 mm 0 W/m 2,5 C 9,3 C 6,0 km/h (2 Bft)
28/03/2008 23:00 10,0 C 56 % 1013,1 hPa 0,0 l/m 6,1 km/h (2 Bft) O-SO 0,00 h 0,051 mm 0 W/m 1,6 C 9,6 C 7,4 km/h (2 Bft)
29/03/2008 00:00 9,6 C 56 % 1013,1 hPa 0,0 l/m 2,0 km/h (1 Bft) O 0,00 h 0,051 mm 0 W/m 1,2 C 9,6 C 3,1 km/h (1 Bft)
29/03/2008 01:00 8,8 C 56 % 1013,0 hPa 0,0 l/m 1,3 km/h (1 Bft) O 0,00 h 0,051 mm 0 W/m 0,5 C 8,8 C 2,3 km/h (1 Bft)
29/03/2008 02:00 8,7 C 56 % 1012,9 hPa 0,0 l/m 2,8 km/h (1 Bft) O 0,00 h 0,025 mm 0 W/m 0,4 C 8,6 C 3,9 km/h (1 Bft)
29/03/2008 03:00 8,7 C 55 % 1012,9 hPa 0,0 l/m 3,9 km/h (1 Bft) O 0,00 h 0,051 mm 0 W/m 0,3 C 8,5 C 5,6 km/h (1 Bft)
29/03/2008 04:00 8,1 C 58 % 1013,2 hPa 0,0 l/m 2,8 km/h (1 Bft) NO 0,00 h 0,051 mm 0 W/m 0,4 C 8,0 C 4,6 km/h (1 Bft)
29/03/2008 05:00 8,2 C 58 % 1013,8 hPa 0,0 l/m 0,8 km/h (0 Bft) NE 0,00 h 0,051 mm 0 W/m 0,4 C 8,2 C 1,5 km/h (1 Bft)
29/03/2008 06:00 8,6 C 59 % 1014,6 hPa 0,0 l/m 6,3 km/h (2 Bft) O 0,03 h 0,000 mm 15 W/m 1,0 C 7,8 C 7,9 km/h (2 Bft)
29/03/2008 07:00 10,0 C 62 % 1015,5 hPa 0,0 l/m 6,1 km/h (2 Bft) O-SO 0,02 h 0,051 mm 43 W/m 3,0 C 9,5 C 8,7 km/h (2 Bft)
29/03/2008 08:00 12,7 C 61 % 1016,1 hPa 0,0 l/m 11,0 km/h (2 Bft) SO 1,00 h 0,051 mm 344 W/m 5,3 C 12,7 C 14,5 km/h (3 Bft)
29/03/2008 09:00 14,5 C 53 % 1016,9 hPa 0,0 l/m 12,0 km/h (2 Bft) SO 1,00 h 0,229 mm 514 W/m 4,8 C 14,5 C 16,4 km/h (3 Bft)
29/03/2008 10:00 16,0 C 47 % 1017,4 hPa 0,0 l/m 9,6 km/h (2 Bft) S 1,00 h 0,330 mm 648 W/m 4,8 C 16,0 C 14,7 km/h (3 Bft)
29/03/2008 11:00 16,2 C 49 % 1017,7 hPa 0,0 l/m 9,5 km/h (2 Bft) S 1,00 h 0,406 mm 732 W/m 5,4 C 16,2 C 15,7 km/h (3 Bft)
29/03/2008 12:00 16,9 C 52 % 1017,8 hPa 0,0 l/m 6,5 km/h (2 Bft) S 1,00 h 0,457 mm 764 W/m 7,0 C 16,9 C 11,6 km/h (2 Bft)
29/03/2008 13:00 16,5 C 58 % 1017,8 hPa 0,0 l/m 9,4 km/h (2 Bft) S-SE 1,00 h 0,457 mm 738 W/m 8,2 C 16,5 C 15,5 km/h (3 Bft)
29/03/2008 14:00 16,1 C 62 % 1017,7 hPa 0,0 l/m 9,9 km/h (2 Bft) E 1,00 h 0,457 mm 659 W/m 8,8 C 16,1 C 15,0 km/h (3 Bft)
29/03/2008 15:00 15,7 C 62 % 1017,7 hPa 0,0 l/m 6,9 km/h (2 Bft) E 1,00 h 0,406 mm 533 W/m 8,6 C 15,7 C 10,6 km/h (2 Bft)
29/03/2008 16:00 15,7 C 62 % 1017,7 hPa 0,0 l/m 3,9 km/h (1 Bft) E-SE 1,00 h 0,330 mm 370 W/m 8,4 C 15,7 C 6,7 km/h (2 Bft)
29/03/2008 17:00 15,2 C 59 % 1017,8 hPa 0,0 l/m 1,0 km/h (0 Bft) E 1,00 h 0,229 mm 185 W/m 7,1 C 15,2 C 2,6 km/h (1 Bft)
29/03/2008 18:00 13,7 C 60 % 1018,0 hPa 0,0 l/m 0,0 km/h (0 Bft) N 0,07 h 0,102 mm 30 W/m 6,1 C 13,7 C 0,0 km/h (0 Bft)
29/03/2008 19:00 12,1 C 64 % 1018,2 hPa 0,0 l/m 0,7 km/h (0 Bft) E-SE 0,00 h 0,025 mm 0 W/m 5,5 C 12,1 C 1,3 km/h (1 Bft)
29/03/2008 20:00 11,3 C 70 % 1018,7 hPa 0,0 l/m 1,5 km/h (1 Bft) E 0,00 h 0,000 mm 0 W/m 6,0 C 11,3 C 2,7 km/h (1 Bft)
29/03/2008 21:00 10,7 C 79 % 1019,1 hPa 0,0 l/m 1,1 km/h (1 Bft) E 0,00 h 0,025 mm 0 W/m 7,2 C 10,7 C 1,9 km/h (1 Bft)
29/03/2008 22:00 10,3 C 86 % 1019,1 hPa 0,0 l/m 0,8 km/h (0 Bft) E 0,00 h 0,025 mm 0 W/m 8,0 C 10,3 C 1,7 km/h (1 Bft)
29/03/2008 23:00 10,0 C 89 % 1019,2 hPa 0,0 l/m 1,3 km/h (1 Bft) NO 0,00 h 0,025 mm 0 W/m 8,3 C 10,0 C 2,7 km/h (1 Bft)
30/03/2008 00:00 9,5 C 91 % 1019,1 hPa 0,0 l/m 2,0 km/h (1 Bft) NO 0,00 h 0,025 mm 0 W/m 8,0 C 9,5 C 2,8 km/h (1 Bft)
30/03/2008 01:00 9,5 C 92 % 1019,0 hPa 0,0 l/m 3,0 km/h (1 Bft) O 0,00 h 0,000 mm 0 W/m 8,2 C 9,4 C 4,4 km/h (1 Bft)
30/03/2008 03:00 8,7 C 93 % 1018,9 hPa 0,0 l/m 2,8 km/h (1 Bft) O-NO 0,00 h 0,000 mm 0 W/m 7,6 C 8,6 C 4,5 km/h (1 Bft)
30/03/2008 04:00 8,4 C 93 % 1018,9 hPa 0,0 l/m 3,1 km/h (1 Bft) O-NO 0,00 h 0,000 mm 0 W/m 7,3 C 8,3 C 4,8 km/h (1 Bft)
30/03/2008 05:00 8,3 C 93 % 1018,7 hPa 0,0 l/m 0,5 km/h (0 Bft) O-NO 0,00 h 0,000 mm 0 W/m 7,2 C 8,3 C 0,9 km/h (0 Bft)
30/03/2008 06:00 7,6 C 93 % 1018,7 hPa 0,0 l/m 3,4 km/h (1 Bft) O-NO 0,00 h 0,000 mm 0 W/m 6,5 C 7,3 C 4,7 km/h (1 Bft)
30/03/2008 07:00 7,5 C 93 % 1018,8 hPa 0,0 l/m 2,7 km/h (1 Bft) O-NO 0,15 h 0,000 mm 23 W/m 6,4 C 7,4 C 3,9 km/h (1 Bft)
30/03/2008 08:00 7,8 C 91 % 1019,3 hPa 0,0 l/m 6,4 km/h (2 Bft) NE 0,05 h 0,025 mm 73 W/m 6,4 C 6,9 C 9,4 km/h (2 Bft)
30/03/2008 09:00 11,4 C 75 % 1019,6 hPa 0,0 l/m 7,2 km/h (2 Bft) NE 1,00 h 0,051 mm 309 W/m 7,2 C 11,3 C 10,8 km/h (2 Bft)
30/03/2008 10:00 13,7 C 76 % 1019,7 hPa 0,0 l/m 11,6 km/h (2 Bft) E-NE 0,68 h 0,178 mm 404 W/m 9,5 C 13,7 C 16,1 km/h (3 Bft)
30/03/2008 11:00 14,5 C 74 % 1019,5 hPa 0,0 l/m 13,1 km/h (3 Bft) E-NE 0,70 h 0,254 mm 561 W/m 9,9 C 14,5 C 18,3 km/h (3 Bft)
30/03/2008 12:00 15,6 C 72 % 1019,2 hPa 0,0 l/m 10,5 km/h (2 Bft) E 0,98 h 0,330 mm 751 W/m 10,6 C 15,6 C 15,8 km/h (3 Bft)
30/03/2008 13:00 15,9 C 72 % 1018,8 hPa 0,0 l/m 8,4 km/h (2 Bft) E 1,00 h 0,406 mm 780 W/m 10,8 C 15,9 C 13,1 km/h (3 Bft)
30/03/2008 14:00 16,0 C 70 % 1018,2 hPa 0,0 l/m 7,6 km/h (2 Bft) E-NE 0,95 h 0,406 mm 678 W/m 10,5 C 16,0 C 12,5 km/h (3 Bft)
30/03/2008 15:00 16,7 C 64 % 1017,4 hPa 0,0 l/m 9,0 km/h (2 Bft) E-NE 1,00 h 0,381 mm 663 W/m 9,8 C 16,7 C 13,6 km/h (3 Bft)
30/03/2008 16:00 15,8 C 59 % 1016,7 hPa 0,0 l/m 6,8 km/h (2 Bft) E-NE 0,77 h 0,406 mm 485 W/m 7,9 C 15,8 C 10,5 km/h (2 Bft)
30/03/2008 17:00 16,0 C 54 % 1016,2 hPa 0,0 l/m 4,1 km/h (1 Bft) NE 0,80 h 0,305 mm 354 W/m 6,7 C 16,0 C 6,5 km/h (2 Bft)
30/03/2008 18:00 15,0 C 60 % 1015,6 hPa 0,0 l/m 3,2 km/h (1 Bft) NE 0,65 h 0,229 mm 140 W/m 7,2 C 15,0 C 5,5 km/h (1 Bft)
30/03/2008 19:00 13,1 C 70 % 1015,8 hPa 0,0 l/m 2,1 km/h (1 Bft) E-SE 0,58 h 0,102 mm 49 W/m 7,7 C 13,1 C 4,5 km/h (1 Bft)
30/03/2008 20:00 11,3 C 76 % 1016,1 hPa 0,0 l/m 1,7 km/h (1 Bft) E-SE 0,00 h 0,025 mm 0 W/m 7,2 C 11,3 C 3,3 km/h (1 Bft)
30/03/2008 21:00 10,1 C 80 % 1015,7 hPa 0,0 l/m 1,9 km/h (1 Bft) E-NE 0,00 h 0,000 mm 0 W/m 6,9 C 10,1 C 3,4 km/h (1 Bft)
30/03/2008 22:00 9,4 C 81 % 1015,6 hPa 0,0 l/m 1,4 km/h (1 Bft) E-NE 0,00 h 0,025 mm 0 W/m 6,4 C 9,4 C 2,6 km/h (1 Bft)
30/03/2008 23:00 10,0 C 80 % 1015,4 hPa 0,0 l/m 2,0 km/h (1 Bft) E-NE 0,00 h 0,025 mm 0 W/m 6,7 C 10,0 C 3,1 km/h (1 Bft)
Min-Date _ 24/03/08 24/03/08 24/03/08 - 24/03/08 - - - - 24/03/08 24/03/08 24/03/08
_ Min-Heure 06:54 19:34 03:15 - 00:00 - - - - 20:19 06:49 00:00
Minimum _ 0,8 C 20 % 989,3 hPa - 0,0 km/h (0 Bft) - - - - -13,4 C -2,2 C 0,0 km/h (0 Bft)
Max-Date _ 29/03/08 30/03/08 30/03/08 27/03/08 24/03/08 - 24/03/08 28/03/08 30/03/08 30/03/08 29/03/08 24/03/08
_ Max-Heure 12:38 04:34 10:00 11:38 19:55 - 07:43 14:00 13:32 13:21 12:38 19:54
Maximum _ 17,7 C 94 % 1019,8 hPa 1,2 l/m 43,5 km/h
NO (6 Bft)
- 0,02 h 0,533 mm 891 W/m 11,5 C 17,7 C 57,9 km/h
O-NO (7 Bft)
Moyenne _ 10,1 C 59 % 1004,4 hPa #3,4 l/m 7,1 km/h (2 Bft) O-NO #61:38 h #25,488 mm 384 W/m 1,7 C 9,5 C 10,4 km/h (2 Bft)
Roquefort les pins